sensor_id;sensor_type;location;lat;lon;timestamp;pressure;altitude;pressure_sealevel;temperature;humidity
38939;BME280;24211;49.980;19.776;2022-12-07T00:10:50;98950.94;;;3.42;100.00
38939;BME280;24211;49.980;19.776;2022-12-07T00:29:26;98950.56;;;3.45;100.00
38939;BME280;24211;49.980;19.776;2022-12-07T00:48:00;98932.59;;;3.55;100.00
38939;BME280;24211;49.980;19.776;2022-12-07T01:21:53;98914.16;;;3.62;100.00
38939;BME280;24211;49.980;19.776;2022-12-07T01:55:26;98900.88;;;3.55;100.00
38939;BME280;24211;49.980;19.776;2022-12-07T02:08:43;98890.94;;;3.57;100.00
38939;BME280;24211;49.980;19.776;2022-12-07T02:12:29;98892.75;;;3.57;100.00
38939;BME280;24211;49.980;19.776;2022-12-07T02:31:51;98894.41;;;3.58;100.00
38939;BME280;24211;49.980;19.776;2022-12-07T02:34:49;98902.72;;;3.55;100.00
38939;BME280;24211;49.980;19.776;2022-12-07T02:37:53;98896.59;;;3.54;100.00
38939;BME280;24211;49.980;19.776;2022-12-07T02:40:32;98902.91;;;3.53;100.00
38939;BME280;24211;49.980;19.776;2022-12-07T02:46:40;98889.69;;;3.53;100.00
38939;BME280;24211;49.980;19.776;2022-12-07T02:49:10;98893.97;;;3.54;100.00
38939;BME280;24211;49.980;19.776;2022-12-07T02:51:43;98892.13;;;3.55;100.00
38939;BME280;24211;49.980;19.776;2022-12-07T02:54:24;98887.69;;;3.55;100.00
38939;BME280;24211;49.980;19.776;2022-12-07T03:42:56;98858.50;;;3.63;100.00
38939;BME280;24211;49.980;19.776;2022-12-07T03:46:05;98856.03;;;3.62;100.00
38939;BME280;24211;49.980;19.776;2022-12-07T03:49:00;98854.00;;;3.64;100.00
38939;BME280;24211;49.980;19.776;2022-12-07T03:51:38;98855.84;;;3.63;100.00
38939;BME280;24211;49.980;19.776;2022-12-07T03:54:21;98847.91;;;3.63;100.00
38939;BME280;24211;49.980;19.776;2022-12-07T03:56:53;98844.25;;;3.64;100.00
38939;BME280;24211;49.980;19.776;2022-12-07T03:59:22;98849.53;;;3.64;100.00
38939;BME280;24211;49.980;19.776;2022-12-07T04:01:56;98848.09;;;3.62;100.00
38939;BME280;24211;49.980;19.776;2022-12-07T04:04:25;98847.28;;;3.61;100.00
38939;BME280;24211;49.980;19.776;2022-12-07T04:06:52;98846.28;;;3.62;100.00
38939;BME280;24211;49.980;19.776;2022-12-07T04:09:21;98841.00;;;3.62;100.00
38939;BME280;24211;49.980;19.776;2022-12-07T04:11:49;98845.44;;;3.62;100.00
38939;BME280;24211;49.980;19.776;2022-12-07T04:14:17;98841.19;;;3.61;100.00
38939;BME280;24211;49.980;19.776;2022-12-07T04:16:55;98843.00;;;3.60;100.00
38939;BME280;24211;49.980;19.776;2022-12-07T04:19:33;98842.19;;;3.60;100.00
38939;BME280;24211;49.980;19.776;2022-12-07T04:22:03;98845.03;;;3.58;100.00
38939;BME280;24211;49.980;19.776;2022-12-07T04:24:32;98838.94;;;3.58;100.00
38939;BME280;24211;49.980;19.776;2022-12-07T04:26:59;98831.81;;;3.58;100.00
38939;BME280;24211;49.980;19.776;2022-12-07T04:29:29;98837.72;;;3.60;100.00
38939;BME280;24211;49.980;19.776;2022-12-07T04:47:53;98842.16;;;3.53;100.00
38939;BME280;24211;49.980;19.776;2022-12-07T05:39:43;98858.00;;;3.32;100.00
38939;BME280;24211;49.980;19.776;2022-12-07T05:43:08;98857.56;;;3.28;100.00
38939;BME280;24211;49.980;19.776;2022-12-07T05:45:35;98868.31;;;3.27;100.00
38939;BME280;24211;49.980;19.776;2022-12-07T05:53:51;98869.13;;;3.27;100.00
38939;BME280;24211;49.980;19.776;2022-12-07T05:57:01;98871.09;;;3.19;100.00
38939;BME280;24211;49.980;19.776;2022-12-07T05:59:29;98876.94;;;3.14;100.00
38939;BME280;24211;49.980;19.776;2022-12-07T06:01:58;98874.47;;;3.13;100.00
38939;BME280;24211;49.980;19.776;2022-12-07T06:04:31;98874.84;;;3.10;100.00
38939;BME280;24211;49.980;19.776;2022-12-07T06:12:41;98879.50;;;3.08;100.00
38939;BME280;24211;49.980;19.776;2022-12-07T06:15:10;98878.25;;;3.04;100.00
38939;BME280;24211;49.980;19.776;2022-12-07T06:17:40;98876.59;;;3.03;100.00
38939;BME280;24211;49.980;19.776;2022-12-07T06:20:17;98877.78;;;3.00;100.00
38939;BME280;24211;49.980;19.776;2022-12-07T06:22:44;98874.91;;;2.95;100.00
38939;BME280;24211;49.980;19.776;2022-12-07T06:25:11;98871.63;;;2.93;100.00
38939;BME280;24211;49.980;19.776;2022-12-07T06:27:38;98890.72;;;2.95;100.00
38939;BME280;24211;49.980;19.776;2022-12-07T06:37:52;98882.66;;;2.97;100.00
38939;BME280;24211;49.980;19.776;2022-12-07T06:40:19;98887.09;;;2.96;100.00
38939;BME280;24211;49.980;19.776;2022-12-07T06:42:46;98894.81;;;2.98;100.00
38939;BME280;24211;49.980;19.776;2022-12-07T06:45:13;98882.91;;;3.02;100.00
38939;BME280;24211;49.980;19.776;2022-12-07T06:47:41;98892.06;;;3.06;100.00
38939;BME280;24211;49.980;19.776;2022-12-07T06:50:09;98885.81;;;3.07;100.00
38939;BME280;24211;49.980;19.776;2022-12-07T06:52:37;98889.44;;;3.06;100.00
38939;BME280;24211;49.980;19.776;2022-12-07T06:55:13;98890.81;;;3.02;100.00
38939;BME280;24211;49.980;19.776;2022-12-07T06:57:41;98900.72;;;3.00;100.00
38939;BME280;24211;49.980;19.776;2022-12-07T07:00:24;98902.56;;;2.99;100.00
38939;BME280;24211;49.980;19.776;2022-12-07T07:18:50;98909.03;;;2.97;100.00
38939;BME280;24211;49.980;19.776;2022-12-07T07:21:18;98907.38;;;2.96;100.00
38939;BME280;24211;49.980;19.776;2022-12-07T07:23:51;98900.50;;;2.95;100.00
38939;BME280;24211;49.980;19.776;2022-12-07T07:28:57;98902.22;;;2.88;100.00
38939;BME280;24211;49.980;19.776;2022-12-07T07:31:24;98897.59;;;2.90;100.00
38939;BME280;24211;49.980;19.776;2022-12-07T07:38:02;98906.13;;;2.92;100.00
38939;BME280;24211;49.980;19.776;2022-12-07T07:40:33;98901.69;;;2.92;100.00
38939;BME280;24211;49.980;19.776;2022-12-07T07:43:03;98907.75;;;2.93;100.00
38939;BME280;24211;49.980;19.776;2022-12-07T07:50:50;98912.16;;;2.86;100.00
38939;BME280;24211;49.980;19.776;2022-12-07T07:53:25;98915.81;;;2.85;100.00
38939;BME280;24211;49.980;19.776;2022-12-07T07:55:53;98922.28;;;2.82;100.00
38939;BME280;24211;49.980;19.776;2022-12-07T07:58:21;98918.19;;;2.80;100.00
38939;BME280;24211;49.980;19.776;2022-12-07T08:00:49;98925.91;;;2.81;100.00
38939;BME280;24211;49.980;19.776;2022-12-07T08:03:19;98926.88;;;2.80;100.00
38939;BME280;24211;49.980;19.776;2022-12-07T08:05:46;98921.44;;;2.82;100.00
38939;BME280;24211;49.980;19.776;2022-12-07T08:08:13;98927.97;;;2.86;100.00
38939;BME280;24211;49.980;19.776;2022-12-07T08:10:40;98924.50;;;2.85;100.00
38939;BME280;24211;49.980;19.776;2022-12-07T08:13:08;98927.97;;;2.86;100.00
38939;BME280;24211;49.980;19.776;2022-12-07T08:15:40;98932.44;;;2.85;100.00
38939;BME280;24211;49.980;19.776;2022-12-07T08:18:09;98934.53;;;2.90;100.00
38939;BME280;24211;49.980;19.776;2022-12-07T08:20:42;98935.78;;;2.94;100.00
38939;BME280;24211;49.980;19.776;2022-12-07T08:23:11;98937.81;;;2.92;100.00
38939;BME280;24211;49.980;19.776;2022-12-07T08:25:39;98934.16;;;2.93;100.00
38939;BME280;24211;49.980;19.776;2022-12-07T08:28:07;98932.59;;;2.98;100.00
38939;BME280;24211;49.980;19.776;2022-12-07T08:30:34;98931.59;;;2.99;100.00
38939;BME280;24211;49.980;19.776;2022-12-07T08:33:01;98940.97;;;3.02;100.00
38939;BME280;24211;49.980;19.776;2022-12-07T08:35:28;98941.78;;;3.02;100.00
38939;BME280;24211;49.980;19.776;2022-12-07T08:37:55;98948.50;;;3.05;100.00
38939;BME280;24211;49.980;19.776;2022-12-07T08:40:24;98951.81;;;3.07;100.00
38939;BME280;24211;49.980;19.776;2022-12-07T08:42:52;98939.59;;;3.06;100.00
38939;BME280;24211;49.980;19.776;2022-12-07T08:45:21;98945.84;;;3.05;100.00
38939;BME280;24211;49.980;19.776;2022-12-07T08:48:09;98948.50;;;3.05;100.00
38939;BME280;24211;49.980;19.776;2022-12-07T08:50:37;98949.31;;;3.05;100.00
38939;BME280;24211;49.980;19.776;2022-12-07T08:53:10;98948.13;;;3.08;100.00
38939;BME280;24211;49.980;19.776;2022-12-07T08:55:37;98951.41;;;3.10;100.00
38939;BME280;24211;49.980;19.776;2022-12-07T08:58:04;98954.69;;;3.12;100.00
38939;BME280;24211;49.980;19.776;2022-12-07T09:00:31;98950.59;;;3.09;100.00
38939;BME280;24211;49.980;19.776;2022-12-07T09:02:58;98957.97;;;3.14;100.00
38939;BME280;24211;49.980;19.776;2022-12-07T09:05:26;98955.59;;;3.19;100.00
38939;BME280;24211;49.980;19.776;2022-12-07T09:07:58;98951.50;;;3.16;100.00
38939;BME280;24211;49.980;19.776;2022-12-07T09:10:28;98955.59;;;3.19;100.00
38939;BME280;24211;49.980;19.776;2022-12-07T09:42:08;98929.91;;;3.49;100.00
38939;BME280;24211;49.980;19.776;2022-12-07T09:46:01;98930.69;;;3.49;100.00
38939;BME280;24211;49.980;19.776;2022-12-07T09:48:33;98937.63;;;3.50;100.00
38939;BME280;24211;49.980;19.776;2022-12-07T10:24:55;98894.69;;;3.69;100.00
38939;BME280;24211;49.980;19.776;2022-12-07T10:47:47;98866.75;;;3.81;100.00
38939;BME280;24211;49.980;19.776;2022-12-07T10:56:44;98866.22;;;3.92;100.00
38939;BME280;24211;49.980;19.776;2022-12-07T10:59:49;98862.56;;;3.93;100.00
38939;BME280;24211;49.980;19.776;2022-12-07T11:02:51;98854.63;;;3.93;100.00
38939;BME280;24211;49.980;19.776;2022-12-07T11:05:38;98852.22;;;3.98;100.00
38939;BME280;24211;49.980;19.776;2022-12-07T12:42:01;98787.06;;;4.86;100.00
38939;BME280;24211;49.980;19.776;2022-12-07T12:46:58;98782.56;;;4.80;100.00
38939;BME280;24211;49.980;19.776;2022-12-07T12:49:40;98793.56;;;4.83;100.00
38939;BME280;24211;49.980;19.776;2022-12-07T13:02:29;98794.34;;;4.71;100.00
38939;BME280;24211;49.980;19.776;2022-12-07T13:18:45;98783.34;;;4.67;100.00
38939;BME280;24211;49.980;19.776;2022-12-07T14:10:06;98816.75;;;4.68;100.00
38939;BME280;24211;49.980;19.776;2022-12-07T14:12:36;98826.09;;;4.64;100.00
38939;BME280;24211;49.980;19.776;2022-12-07T14:15:04;98818.72;;;4.59;100.00
38939;BME280;24211;49.980;19.776;2022-12-07T14:17:32;98827.28;;;4.55;100.00
38939;BME280;24211;49.980;19.776;2022-12-07T14:20:02;98826.44;;;4.48;100.00
38939;BME280;24211;49.980;19.776;2022-12-07T14:22:38;98826.59;;;4.40;100.00
38939;BME280;24211;49.980;19.776;2022-12-07T14:25:20;98821.09;;;4.35;100.00
38939;BME280;24211;49.980;19.776;2022-12-07T14:27:58;98820.22;;;4.28;100.00
38939;BME280;24211;49.980;19.776;2022-12-07T14:30:32;98823.09;;;4.26;100.00
38939;BME280;24211;49.980;19.776;2022-12-07T14:33:03;98825.94;;;4.25;100.00
38939;BME280;24211;49.980;19.776;2022-12-07T14:35:32;98827.16;;;4.22;100.00
38939;BME280;24211;49.980;19.776;2022-12-07T14:37:59;98826.31;;;4.22;100.00
38939;BME280;24211;49.980;19.776;2022-12-07T14:40:29;98814.72;;;4.23;100.00
38939;BME280;24211;49.980;19.776;2022-12-07T14:43:12;98811.47;;;4.21;100.00
38939;BME280;24211;49.980;19.776;2022-12-07T14:45:40;98817.34;;;4.23;100.00
38939;BME280;24211;49.980;19.776;2022-12-07T14:48:13;98819.38;;;4.21;100.00
38939;BME280;24211;49.980;19.776;2022-12-07T14:51:04;98811.28;;;4.22;100.00
38939;BME280;24211;49.980;19.776;2022-12-07T14:53:53;98808.81;;;4.21;100.00
38939;BME280;24211;49.980;19.776;2022-12-07T14:56:24;98815.75;;;4.22;100.00
38939;BME280;24211;49.980;19.776;2022-12-07T14:58:51;98824.28;;;4.24;100.00
38939;BME280;24211;49.980;19.776;2022-12-07T15:01:19;98826.94;;;4.24;100.00
38939;BME280;24211;49.980;19.776;2022-12-07T15:03:46;98827.16;;;4.22;100.00
38939;BME280;24211;49.980;19.776;2022-12-07T15:06:17;98826.31;;;4.22;100.00
38939;BME280;24211;49.980;19.776;2022-12-07T15:08:45;98827.94;;;4.23;100.00
38939;BME280;24211;49.980;19.776;2022-12-07T15:11:15;98825.28;;;4.23;100.00
38939;BME280;24211;49.980;19.776;2022-12-07T15:13:42;98821.84;;;4.22;100.00
38939;BME280;24211;49.980;19.776;2022-12-07T15:16:28;98827.56;;;4.26;100.00
38939;BME280;24211;49.980;19.776;2022-12-07T16:34:03;98854.97;;;3.84;100.00
38939;BME280;24211;49.980;19.776;2022-12-07T16:36:38;98861.06;;;3.84;100.00
38939;BME280;24211;49.980;19.776;2022-12-07T16:39:25;98854.56;;;3.80;100.00
38939;BME280;24211;49.980;19.776;2022-12-07T16:41:52;98855.34;;;3.81;100.00
38939;BME280;24211;49.980;19.776;2022-12-07T16:44:20;98866.75;;;3.81;100.00
38939;BME280;24211;49.980;19.776;2022-12-07T16:46:47;98858.19;;;3.79;100.00
38939;BME280;24211;49.980;19.776;2022-12-07T16:49:15;98859.00;;;3.80;100.00
38939;BME280;24211;49.980;19.776;2022-12-07T16:51:42;98860.63;;;3.81;100.00
38939;BME280;24211;49.980;19.776;2022-12-07T16:54:11;98859.84;;;3.80;100.00
38939;BME280;24211;49.980;19.776;2022-12-07T16:56:40;98865.13;;;3.80;100.00
38939;BME280;24211;49.980;19.776;2022-12-07T16:59:08;98865.50;;;3.77;100.00
38939;BME280;24211;49.980;19.776;2022-12-07T17:01:35;98872.81;;;3.75;100.00
38939;BME280;24211;49.980;19.776;2022-12-07T17:04:03;98867.53;;;3.75;100.00
38939;BME280;24211;49.980;19.776;2022-12-07T17:06:31;98871.53;;;3.71;100.00
38939;BME280;24211;49.980;19.776;2022-12-07T17:08:58;98866.25;;;3.71;100.00
38939;BME280;24211;49.980;19.776;2022-12-07T17:11:30;98862.56;;;3.66;100.00
38939;BME280;24211;49.980;19.776;2022-12-07T17:14:00;98858.50;;;3.63;100.00
38939;BME280;24211;49.980;19.776;2022-12-07T17:16:48;98864.16;;;3.60;100.00
38939;BME280;24211;49.980;19.776;2022-12-07T17:19:16;98867.38;;;3.56;100.00
38939;BME280;24211;49.980;19.776;2022-12-07T17:21:44;98866.16;;;3.58;100.00
38939;BME280;24211;49.980;19.776;2022-12-07T17:24:14;98873.47;;;3.56;100.00
38939;BME280;24211;49.980;19.776;2022-12-07T17:26:45;98872.81;;;3.54;100.00
38939;BME280;24211;49.980;19.776;2022-12-07T17:29:15;98874.22;;;3.50;100.00
38939;BME280;24211;49.980;19.776;2022-12-07T17:31:45;98874.59;;;3.47;100.00
38939;BME280;24211;49.980;19.776;2022-12-07T17:34:18;98882.09;;;3.44;100.00
38939;BME280;24211;49.980;19.776;2022-12-07T17:36:46;98879.63;;;3.42;100.00
38939;BME280;24211;49.980;19.776;2022-12-07T17:39:17;98873.72;;;3.40;100.00
38939;BME280;24211;49.980;19.776;2022-12-07T17:41:45;98876.38;;;3.40;100.00
38939;BME280;24211;49.980;19.776;2022-12-07T17:44:31;98877.75;;;3.36;100.00
38939;BME280;24211;49.980;19.776;2022-12-07T17:46:58;98886.69;;;3.35;100.00
38939;BME280;24211;49.980;19.776;2022-12-07T17:49:28;98879.38;;;3.37;100.00
38939;BME280;24211;49.980;19.776;2022-12-07T17:51:56;98885.44;;;3.31;100.00
38939;BME280;24211;49.980;19.776;2022-12-07T17:54:42;98891.91;;;3.28;100.00
38939;BME280;24211;49.980;19.776;2022-12-07T17:57:10;98882.53;;;3.26;100.00
38939;BME280;24211;49.980;19.776;2022-12-07T17:59:37;98891.09;;;3.28;100.00
38939;BME280;24211;49.980;19.776;2022-12-07T18:02:05;98885.81;;;3.28;100.00
38939;BME280;24211;49.980;19.776;2022-12-07T18:04:32;98884.16;;;3.27;100.00
38939;BME280;24211;49.980;19.776;2022-12-07T18:07:00;98882.53;;;3.26;100.00
38939;BME280;24211;49.980;19.776;2022-12-07T18:09:27;98883.97;;;3.28;100.00
38939;BME280;24211;49.980;19.776;2022-12-07T18:11:54;98887.44;;;3.29;100.00
38939;BME280;24211;49.980;19.776;2022-12-07T18:14:21;98885.81;;;3.28;100.00
38939;BME280;24211;49.980;19.776;2022-12-07T18:16:49;98876.88;;;3.29;100.00
38939;BME280;24211;49.980;19.776;2022-12-07T18:19:16;98878.50;;;3.30;100.00
38939;BME280;24211;49.980;19.776;2022-12-07T18:21:44;98870.41;;;3.32;100.00
38939;BME280;24211;49.980;19.776;2022-12-07T18:24:15;98878.13;;;3.33;100.00
38939;BME280;24211;49.980;19.776;2022-12-07T18:26:44;98876.94;;;3.36;100.00
38939;BME280;24211;49.980;19.776;2022-12-07T18:29:16;98875.28;;;3.35;100.00
38939;BME280;24211;49.980;19.776;2022-12-07T18:31:45;98873.84;;;3.32;100.00
38939;BME280;24211;49.980;19.776;2022-12-07T18:34:16;98874.88;;;3.31;100.00
38939;BME280;24211;49.980;19.776;2022-12-07T18:36:46;98874.66;;;3.33;100.00
38939;BME280;24211;49.980;19.776;2022-12-07T18:39:18;98871.66;;;3.36;100.00
38939;BME280;24211;49.980;19.776;2022-12-07T18:41:46;98870.84;;;3.35;100.00
38939;BME280;24211;49.980;19.776;2022-12-07T18:44:15;98870.47;;;3.38;100.00
38939;BME280;24211;49.980;19.776;2022-12-07T18:46:43;98867.81;;;3.38;100.00
38939;BME280;24211;49.980;19.776;2022-12-07T18:49:11;98865.19;;;3.38;100.00
38939;BME280;24211;49.980;19.776;2022-12-07T18:51:40;98860.88;;;3.37;100.00
38939;BME280;24211;49.980;19.776;2022-12-07T18:54:08;98869.22;;;3.34;100.00
38939;BME280;24211;49.980;19.776;2022-12-07T18:56:36;98869.22;;;3.34;100.00
38939;BME280;24211;49.980;19.776;2022-12-07T18:59:04;98871.19;;;3.32;100.00
38939;BME280;24211;49.980;19.776;2022-12-07T19:01:53;98875.69;;;3.32;100.00
38939;BME280;24211;49.980;19.776;2022-12-07T19:04:21;98871.59;;;3.29;100.00
38939;BME280;24211;49.980;19.776;2022-12-07T19:06:49;98873.59;;;3.27;100.00
38939;BME280;24211;49.980;19.776;2022-12-07T19:09:18;98877.25;;;3.26;100.00
38939;BME280;24211;49.980;19.776;2022-12-07T19:11:46;98873.22;;;3.30;100.00
38939;BME280;24211;49.980;19.776;2022-12-07T19:14:34;98878.50;;;3.30;100.00
38939;BME280;24211;49.980;19.776;2022-12-07T19:17:09;98876.47;;;3.32;100.00
38939;BME280;24211;49.980;19.776;2022-12-07T19:35:55;98878.38;;;3.38;100.00
38939;BME280;24211;49.980;19.776;2022-12-07T19:38:22;98871.44;;;3.37;100.00
38939;BME280;24211;49.980;19.776;2022-12-07T19:40:49;98875.28;;;3.35;100.00
38939;BME280;24211;49.980;19.776;2022-12-07T19:43:16;98873.69;;;3.34;100.00
38939;BME280;24211;49.980;19.776;2022-12-07T19:45:43;98878.13;;;3.33;100.00
38939;BME280;24211;49.980;19.776;2022-12-07T19:48:11;98873.22;;;3.30;100.00
38939;BME280;24211;49.980;19.776;2022-12-07T19:50:38;98873.59;;;3.27;100.00
38939;BME280;24211;49.980;19.776;2022-12-07T19:53:05;98866.69;;;3.26;100.00
38939;BME280;24211;49.980;19.776;2022-12-07T19:55:38;98876.88;;;3.29;100.00
38939;BME280;24211;49.980;19.776;2022-12-07T19:58:06;98872.59;;;3.28;100.00
38939;BME280;24211;49.980;19.776;2022-12-07T20:00:33;98870.94;;;3.27;100.00
38939;BME280;24211;49.980;19.776;2022-12-07T20:03:02;98878.09;;;3.26;100.00
38939;BME280;24211;49.980;19.776;2022-12-07T20:05:29;98880.53;;;3.28;100.00
38939;BME280;24211;49.980;19.776;2022-12-07T20:07:56;98876.88;;;3.29;100.00
38939;BME280;24211;49.980;19.776;2022-12-07T20:10:23;98876.88;;;3.29;100.00
38939;BME280;24211;49.980;19.776;2022-12-07T20:12:52;98882.16;;;3.29;100.00
38939;BME280;24211;49.980;19.776;2022-12-07T20:15:38;98885.06;;;3.34;100.00
38939;BME280;24211;49.980;19.776;2022-12-07T20:18:05;98883.41;;;3.33;100.00
38939;BME280;24211;49.980;19.776;2022-12-07T20:26:22;98876.13;;;3.35;100.00
38939;BME280;24211;49.980;19.776;2022-12-07T20:28:49;98879.38;;;3.37;100.00
38939;BME280;24211;49.980;19.776;2022-12-07T20:31:17;98881.44;;;3.42;100.00
38939;BME280;24211;49.980;19.776;2022-12-07T20:33:44;98885.13;;;3.41;100.00
38939;BME280;24211;49.980;19.776;2022-12-07T20:36:17;98886.94;;;3.40;100.00
38939;BME280;24211;49.980;19.776;2022-12-07T20:54:40;98899.41;;;3.46;100.00
38939;BME280;24211;49.980;19.776;2022-12-07T21:34:23;98897.38;;;3.48;100.00
38939;BME280;24211;49.980;19.776;2022-12-07T21:36:50;98896.34;;;3.49;100.00
38939;BME280;24211;49.980;19.776;2022-12-07T21:39:17;98898.19;;;3.49;100.00
38939;BME280;24211;49.980;19.776;2022-12-07T21:41:44;98897.38;;;3.48;100.00
